KLYO/LYO METAR and TAF weather

Enter ICAO airport designator
Station Type Date Time Source
KLYO METAR 2020/01/20 18:55 UTC NOAA

KLYO 201855Z AUTO 07010KT 10SM CLR M01/M07 A3052 RMK AO2 T10141073


Station Type Date Time Source
KLYO Decoded METAR 2020/01/20 18:55 UTC NOAA

Station name not available
Jan 20, 2020 - 01:55 PM EST / 2020.01.20 1855 UTC
Wind: from the ENE (070 degrees) at 12 MPH (10 KT):0
Visibility: 10 mile(s):0
Sky conditions: clear
Temperature: 29.5 F (-1.4 C)
Windchill: 19 F (-7 C):1
Dew Point: 18.9 F (-7.3 C)
Relative Humidity: 64%
Pressure (altimeter): 30.52 in. Hg (1033 hPa)
ob: KLYO 201855Z AUTO 07010KT 10SM CLR M01/M07 A3052 RMK AO2 T10141073
cycle: 19

Station Type Date Time Source
KLYO TAF UTC NOAA

Error!

Example: see airport list